Granada, Colorado
Current Conditions -  °F | °C
As of 2:53 AM on Wednesday 26 Nov 2014 (Local Time) from KLAA Reporting Station
Clear Clear  
Wind Chill: 23°   Ceiling: Unl
Heat Index: 31°   Visibility: 10mi
Dew Point: 27°   Wind: 8mph
Humidity: 85%   Direction: 350°N
Pressure: 30.15"   Gusts: NA
Location:  38.06°N, 102.31°W
Report Text: KLAA 260953Z AUTO 35007KT 10SM CLR M01/M03 A3015 RMK AO2 SLP210 T10061028
Loading
Personal Weather Stations






























Interactive Weather Map New forecast layout! Learn more

10-Day Weather Forecast

Advertisements
Track Severe Weather on mobile